WTL94F EDDL-EDXW
Flight info
| Callsign | WTL94F |
|---|---|
| Flight time | 0h 51m |
| Altitude | 29000 |
| Route | MEVEL4T MEVEL Y850 BASUM M170 ELSOB Y348 OMWEG DCT BADOS DCT OLDIP |
| Aircraft | A320/M-SDE2E3FGHIJ1RWXYZ/HB1 |
Departure
| Time | 2026-04-14 16:23 |
|---|---|
| Airport | Düsseldorf Airport (EDDL) |
Arrival
| Time | 2026-04-14 17:15 |
|---|---|
| Airport | Westerland Sylt Airport (EDXW) |
| Time | Latitude | Longitude | Altitude | Speed | Heading |
|---|---|---|---|---|---|
| 2026-04-14 15:46 | 51.27748 | 6.75917 | 122 ft | 0 kts | 91° |
| 2026-04-14 16:14 | 51.27748 | 6.75918 | 122 ft | 0 kts | 91° |
| 2026-04-14 16:15 | 51.27748 | 6.75925 | 122 ft | 0 kts | 91° |
| 2026-04-14 16:15 | 51.27748 | 6.75943 | 122 ft | 2 kts | 91° |
| 2026-04-14 16:15 | 51.27747 | 6.75978 | 122 ft | 3 kts | 91° |
| 2026-04-14 16:15 | 51.27752 | 6.76023 | 122 ft | 4 kts | 59° |
| 2026-04-14 16:16 | 51.27785 | 6.76044 | 122 ft | 7 kts | 2° |
| 2026-04-14 16:16 | 51.27853 | 6.76046 | 121 ft | 11 kts | 1° |
| 2026-04-14 16:16 | 51.27938 | 6.76046 | 119 ft | 13 kts | 1° |
| 2026-04-14 16:16 | 51.28032 | 6.76048 | 118 ft | 13 kts | 1° |
| 2026-04-14 16:17 | 51.28120 | 6.76037 | 118 ft | 12 kts | 9° |
| 2026-04-14 16:17 | 51.28179 | 6.76124 | 120 ft | 10 kts | 53° |
| 2026-04-14 16:17 | 51.28220 | 6.76211 | 121 ft | 9 kts | 53° |
| 2026-04-14 16:17 | 51.28255 | 6.76286 | 122 ft | 8 kts | 53° |
| 2026-04-14 16:18 | 51.28297 | 6.76373 | 122 ft | 10 kts | 52° |
| 2026-04-14 16:18 | 51.28343 | 6.76469 | 123 ft | 11 kts | 53° |
| 2026-04-14 16:18 | 51.28392 | 6.76572 | 125 ft | 11 kts | 53° |
| 2026-04-14 16:18 | 51.28443 | 6.76679 | 125 ft | 13 kts | 52° |
| 2026-04-14 16:19 | 51.28498 | 6.76793 | 126 ft | 12 kts | 53° |
| 2026-04-14 16:19 | 51.28553 | 6.76909 | 126 ft | 13 kts | 53° |
| 2026-04-14 16:19 | 51.28615 | 6.77039 | 125 ft | 15 kts | 53° |
| 2026-04-14 16:19 | 51.28683 | 6.77183 | 124 ft | 16 kts | 53° |
| 2026-04-14 16:20 | 51.28750 | 6.77325 | 125 ft | 16 kts | 53° |
| 2026-04-14 16:20 | 51.28822 | 6.77476 | 124 ft | 17 kts | 53° |
| 2026-04-14 16:20 | 51.28898 | 6.77635 | 124 ft | 18 kts | 52° |
| 2026-04-14 16:20 | 51.28973 | 6.77793 | 124 ft | 18 kts | 53° |
| 2026-04-14 16:21 | 51.29049 | 6.77952 | 126 ft | 17 kts | 53° |
| 2026-04-14 16:21 | 51.29120 | 6.78101 | 127 ft | 16 kts | 53° |
| 2026-04-14 16:21 | 51.29182 | 6.78216 | 128 ft | 10 kts | 27° |
| 2026-04-14 16:21 | 51.29249 | 6.78197 | 129 ft | 10 kts | 328° |
| 2026-04-14 16:22 | 51.29312 | 6.78125 | 129 ft | 11 kts | 324° |
| 2026-04-14 16:22 | 51.29319 | 6.78046 | 127 ft | 7 kts | 233° |
| 2026-04-14 16:22 | 51.29317 | 6.78041 | 127 ft | 0 kts | 233° |
| 2026-04-14 16:22 | 51.29301 | 6.78007 | 127 ft | 18 kts | 233° |
| 2026-04-14 16:23 | 51.29055 | 6.77494 | 124 ft | 95 kts | 233° |
| 2026-04-14 16:23 | 51.28522 | 6.76373 | 125 ft | 156 kts | 233° |
| 2026-04-14 16:23 | 51.27836 | 6.74931 | 618 ft | 166 kts | 233° |
| 2026-04-14 16:23 | 51.27144 | 6.73477 | 1358 ft | 167 kts | 235° |
| 2026-04-14 16:24 | 51.26728 | 6.71816 | 2035 ft | 168 kts | 275° |
| 2026-04-14 16:24 | 51.27221 | 6.70211 | 2734 ft | 165 kts | 316° |
| 2026-04-14 16:24 | 51.28096 | 6.69062 | 3414 ft | 166 kts | 324° |
| 2026-04-14 16:24 | 51.29156 | 6.68251 | 3875 ft | 180 kts | 355° |
| 2026-04-14 16:25 | 51.30445 | 6.68418 | 4336 ft | 195 kts | 8° |
| 2026-04-14 16:25 | 51.31844 | 6.68712 | 4774 ft | 215 kts | 6° |
| 2026-04-14 16:25 | 51.33405 | 6.68967 | 5202 ft | 237 kts | 5° |
| 2026-04-14 16:25 | 51.35092 | 6.69188 | 5730 ft | 255 kts | 4° |
| 2026-04-14 16:26 | 51.36905 | 6.69420 | 6333 ft | 269 kts | 8° |
| 2026-04-14 16:26 | 51.38672 | 6.70438 | 7144 ft | 275 kts | 31° |
| 2026-04-14 16:26 | 51.40224 | 6.72147 | 8032 ft | 276 kts | 35° |
| 2026-04-14 16:26 | 51.41768 | 6.73954 | 8857 ft | 280 kts | 35° |
| 2026-04-14 16:27 | 51.43364 | 6.75757 | 9690 ft | 283 kts | 33° |
| 2026-04-14 16:27 | 51.44987 | 6.77521 | 10465 ft | 287 kts | 32° |
| 2026-04-14 16:27 | 51.46691 | 6.79320 | 11024 ft | 301 kts | 31° |
| 2026-04-14 16:27 | 51.48475 | 6.81175 | 11416 ft | 318 kts | 31° |
| 2026-04-14 16:28 | 51.50361 | 6.83125 | 12010 ft | 326 kts | 31° |
| 2026-04-14 16:28 | 51.52271 | 6.85100 | 12735 ft | 330 kts | 31° |
| 2026-04-14 16:28 | 51.54203 | 6.87096 | 13435 ft | 334 kts | 31° |
| 2026-04-14 16:28 | 51.56136 | 6.89130 | 14107 ft | 338 kts | 32° |
| 2026-04-14 16:29 | 51.58092 | 6.91242 | 14781 ft | 342 kts | 32° |
| 2026-04-14 16:29 | 51.60070 | 6.93388 | 15453 ft | 345 kts | 32° |
| 2026-04-14 16:29 | 51.62041 | 6.95526 | 16100 ft | 348 kts | 32° |
| 2026-04-14 16:29 | 51.64065 | 6.97717 | 16755 ft | 351 kts | 32° |
| 2026-04-14 16:30 | 51.66075 | 6.99891 | 17381 ft | 354 kts | 32° |
| 2026-04-14 16:30 | 51.68127 | 7.02109 | 17982 ft | 357 kts | 31° |
| 2026-04-14 16:30 | 51.70175 | 7.04324 | 18417 ft | 360 kts | 31° |
| 2026-04-14 16:30 | 51.72259 | 7.06583 | 18682 ft | 362 kts | 31° |
| 2026-04-14 16:31 | 51.74355 | 7.08855 | 19226 ft | 365 kts | 31° |
| 2026-04-14 16:31 | 51.76446 | 7.11126 | 19865 ft | 365 kts | 31° |
| 2026-04-14 16:31 | 51.78548 | 7.13416 | 20419 ft | 367 kts | 31° |
| 2026-04-14 16:31 | 51.80641 | 7.15695 | 20954 ft | 370 kts | 31° |
| 2026-04-14 16:32 | 51.82771 | 7.18017 | 21491 ft | 372 kts | 32° |
| 2026-04-14 16:32 | 51.84860 | 7.20528 | 22018 ft | 375 kts | 36° |
| 2026-04-14 16:32 | 51.86837 | 7.23318 | 22532 ft | 379 kts | 40° |
| 2026-04-14 16:32 | 51.88686 | 7.26316 | 23019 ft | 382 kts | 43° |
| 2026-04-14 16:33 | 51.90526 | 7.29424 | 23483 ft | 385 kts | 43° |
| 2026-04-14 16:33 | 51.92379 | 7.32579 | 23957 ft | 387 kts | 43° |
| 2026-04-14 16:33 | 51.94224 | 7.35720 | 24445 ft | 389 kts | 43° |
| 2026-04-14 16:33 | 51.96091 | 7.38896 | 24906 ft | 391 kts | 42° |
| 2026-04-14 16:34 | 51.97950 | 7.42060 | 25456 ft | 390 kts | 42° |
| 2026-04-14 16:34 | 51.99796 | 7.45202 | 26054 ft | 388 kts | 41° |
| 2026-04-14 16:34 | 52.01660 | 7.48373 | 26631 ft | 386 kts | 41° |
| 2026-04-14 16:34 | 52.03495 | 7.51502 | 27188 ft | 384 kts | 41° |
| 2026-04-14 16:35 | 52.05273 | 7.54534 | 27656 ft | 384 kts | 41° |
| 2026-04-14 16:35 | 52.07111 | 7.57674 | 28073 ft | 385 kts | 41° |
| 2026-04-14 16:35 | 52.08972 | 7.60852 | 28465 ft | 387 kts | 41° |
| 2026-04-14 16:35 | 52.10827 | 7.64003 | 28875 ft | 388 kts | 40° |
| 2026-04-14 16:36 | 52.12689 | 7.67102 | 29178 ft | 389 kts | 40° |
| 2026-04-14 16:36 | 52.16481 | 7.73402 | 29205 ft | 391 kts | 40° |
| 2026-04-14 16:37 | 52.20242 | 7.79730 | 29201 ft | 392 kts | 41° |
| 2026-04-14 16:37 | 52.24008 | 7.86165 | 29198 ft | 390 kts | 41° |
| 2026-04-14 16:38 | 52.27726 | 7.92536 | 29200 ft | 391 kts | 41° |
| 2026-04-14 16:38 | 52.31465 | 7.98957 | 29206 ft | 390 kts | 41° |
| 2026-04-14 16:39 | 52.35182 | 8.05357 | 29203 ft | 391 kts | 41° |
| 2026-04-14 16:39 | 52.38914 | 8.11797 | 29203 ft | 391 kts | 41° |
| 2026-04-14 16:40 | 52.42650 | 8.18259 | 29205 ft | 391 kts | 41° |
| 2026-04-14 16:40 | 52.46365 | 8.24707 | 29211 ft | 391 kts | 41° |
| 2026-04-14 16:41 | 52.50074 | 8.31164 | 29204 ft | 391 kts | 41° |
| 2026-04-14 16:41 | 52.53796 | 8.37658 | 29207 ft | 392 kts | 41° |
| 2026-04-14 16:42 | 52.57534 | 8.44191 | 29212 ft | 392 kts | 41° |
| 2026-04-14 16:42 | 52.61242 | 8.50685 | 29215 ft | 392 kts | 41° |
| 2026-04-14 16:43 | 52.64957 | 8.57217 | 29215 ft | 393 kts | 41° |
| 2026-04-14 16:43 | 52.68676 | 8.63776 | 29217 ft | 394 kts | 41° |
| 2026-04-14 16:44 | 52.72406 | 8.70373 | 29215 ft | 393 kts | 42° |
| 2026-04-14 16:44 | 52.76212 | 8.76785 | 29215 ft | 390 kts | 36° |
| 2026-04-14 16:45 | 52.80597 | 8.81936 | 29216 ft | 387 kts | 25° |
| 2026-04-14 16:45 | 52.82942 | 8.84078 | 29214 ft | 387 kts | 24° |
| 2026-04-14 16:45 | 52.87665 | 8.88280 | 29207 ft | 388 kts | 24° |
| 2026-04-14 16:46 | 52.92397 | 8.92513 | 29200 ft | 388 kts | 24° |
| 2026-04-14 16:46 | 52.97152 | 8.96788 | 29201 ft | 388 kts | 24° |
| 2026-04-14 16:47 | 53.01867 | 9.01046 | 29203 ft | 389 kts | 24° |
| 2026-04-14 16:47 | 53.06587 | 9.05317 | 29199 ft | 388 kts | 24° |
| 2026-04-14 16:48 | 53.11326 | 9.09622 | 29200 ft | 388 kts | 24° |
| 2026-04-14 16:48 | 53.16040 | 9.13915 | 29200 ft | 388 kts | 24° |
| 2026-04-14 16:49 | 53.20763 | 9.18224 | 29197 ft | 388 kts | 24° |
| 2026-04-14 16:49 | 53.25470 | 9.22529 | 29201 ft | 388 kts | 24° |
| 2026-04-14 16:50 | 53.30211 | 9.26879 | 29202 ft | 390 kts | 24° |
| 2026-04-14 16:50 | 53.34934 | 9.31219 | 29199 ft | 390 kts | 24° |
| 2026-04-14 16:51 | 53.39698 | 9.35612 | 29203 ft | 390 kts | 24° |
| 2026-04-14 16:51 | 53.44440 | 9.39997 | 29202 ft | 391 kts | 24° |
| 2026-04-14 16:52 | 53.49188 | 9.44392 | 28986 ft | 392 kts | 23° |
| 2026-04-14 16:52 | 53.51589 | 9.46468 | 28725 ft | 389 kts | 21° |
| 2026-04-14 16:52 | 53.53986 | 9.48481 | 28464 ft | 387 kts | 21° |
| 2026-04-14 16:53 | 53.56384 | 9.50488 | 28155 ft | 386 kts | 21° |
| 2026-04-14 16:53 | 53.58784 | 9.52505 | 27777 ft | 386 kts | 21° |
| 2026-04-14 16:53 | 53.61160 | 9.54505 | 27287 ft | 386 kts | 21° |
| 2026-04-14 16:53 | 53.63594 | 9.56353 | 26701 ft | 383 kts | 13° |
| 2026-04-14 16:54 | 53.66157 | 9.57287 | 26084 ft | 377 kts | 0° |
| 2026-04-14 16:54 | 53.68764 | 9.57246 | 25420 ft | 373 kts | 349° |
| 2026-04-14 16:54 | 53.71303 | 9.56689 | 24808 ft | 373 kts | 347° |
| 2026-04-14 16:54 | 53.73855 | 9.56060 | 24265 ft | 372 kts | 347° |
| 2026-04-14 16:55 | 53.76415 | 9.55434 | 23811 ft | 369 kts | 347° |
| 2026-04-14 16:55 | 53.78919 | 9.54832 | 23362 ft | 366 kts | 347° |
| 2026-04-14 16:55 | 53.81443 | 9.54230 | 22904 ft | 364 kts | 347° |
| 2026-04-14 16:55 | 53.83911 | 9.53648 | 22468 ft | 361 kts | 347° |
| 2026-04-14 16:56 | 53.86377 | 9.53069 | 22031 ft | 358 kts | 347° |
| 2026-04-14 16:56 | 53.88827 | 9.52494 | 21586 ft | 356 kts | 347° |
| 2026-04-14 16:56 | 53.91283 | 9.51917 | 21141 ft | 354 kts | 347° |
| 2026-04-14 16:56 | 53.93690 | 9.51351 | 20699 ft | 352 kts | 347° |
| 2026-04-14 16:57 | 53.96092 | 9.50785 | 20265 ft | 350 kts | 347° |
| 2026-04-14 16:57 | 53.98500 | 9.50160 | 19816 ft | 346 kts | 343° |
| 2026-04-14 16:57 | 54.00762 | 9.49063 | 19385 ft | 340 kts | 334° |
| 2026-04-14 16:57 | 54.02902 | 9.47403 | 18918 ft | 335 kts | 327° |
| 2026-04-14 16:58 | 54.04912 | 9.45473 | 18479 ft | 332 kts | 325° |
| 2026-04-14 16:58 | 54.06891 | 9.43508 | 18043 ft | 330 kts | 325° |
| 2026-04-14 16:58 | 54.08867 | 9.41541 | 17614 ft | 329 kts | 325° |
| 2026-04-14 16:58 | 54.10824 | 9.39599 | 17183 ft | 327 kts | 325° |
| 2026-04-14 16:59 | 54.12779 | 9.37660 | 16760 ft | 325 kts | 325° |
| 2026-04-14 16:59 | 54.14724 | 9.35734 | 16338 ft | 323 kts | 325° |
| 2026-04-14 16:59 | 54.16651 | 9.33823 | 15932 ft | 321 kts | 325° |
| 2026-04-14 16:59 | 54.18547 | 9.31944 | 15501 ft | 319 kts | 325° |
| 2026-04-14 17:00 | 54.20458 | 9.30049 | 15114 ft | 316 kts | 325° |
| 2026-04-14 17:00 | 54.22357 | 9.28164 | 14690 ft | 314 kts | 325° |
| 2026-04-14 17:00 | 54.24229 | 9.26303 | 14284 ft | 312 kts | 325° |
| 2026-04-14 17:00 | 54.26082 | 9.24462 | 13874 ft | 310 kts | 325° |
| 2026-04-14 17:01 | 54.27928 | 9.22622 | 13499 ft | 308 kts | 325° |
| 2026-04-14 17:01 | 54.29772 | 9.20782 | 13085 ft | 307 kts | 325° |
| 2026-04-14 17:01 | 54.31609 | 9.18947 | 12660 ft | 306 kts | 326° |
| 2026-04-14 17:01 | 54.33434 | 9.17124 | 12229 ft | 304 kts | 326° |
| 2026-04-14 17:02 | 54.35242 | 9.15305 | 11807 ft | 302 kts | 325° |
| 2026-04-14 17:02 | 54.36961 | 9.13265 | 11380 ft | 299 kts | 319° |
| 2026-04-14 17:02 | 54.38522 | 9.10922 | 10897 ft | 297 kts | 313° |
| 2026-04-14 17:02 | 54.39970 | 9.08454 | 10500 ft | 293 kts | 312° |
| 2026-04-14 17:03 | 54.41367 | 9.06032 | 10367 ft | 281 kts | 312° |
| 2026-04-14 17:03 | 54.42707 | 9.03705 | 10247 ft | 269 kts | 312° |
| 2026-04-14 17:03 | 54.44006 | 9.01445 | 9979 ft | 263 kts | 312° |
| 2026-04-14 17:03 | 54.45276 | 8.99230 | 9610 ft | 262 kts | 312° |
| 2026-04-14 17:04 | 54.46544 | 8.97021 | 9258 ft | 260 kts | 312° |
| 2026-04-14 17:04 | 54.47807 | 8.94820 | 8912 ft | 258 kts | 313° |
| 2026-04-14 17:04 | 54.49059 | 8.92637 | 8574 ft | 256 kts | 313° |
| 2026-04-14 17:04 | 54.50313 | 8.90449 | 8236 ft | 254 kts | 313° |
| 2026-04-14 17:05 | 54.51537 | 8.88312 | 7905 ft | 253 kts | 313° |
| 2026-04-14 17:05 | 54.52766 | 8.86166 | 7572 ft | 251 kts | 313° |
| 2026-04-14 17:05 | 54.53975 | 8.84052 | 7245 ft | 249 kts | 312° |
| 2026-04-14 17:05 | 54.55195 | 8.81916 | 6914 ft | 248 kts | 312° |
| 2026-04-14 17:06 | 54.56391 | 8.79819 | 6588 ft | 247 kts | 312° |
| 2026-04-14 17:06 | 54.57592 | 8.77712 | 6261 ft | 245 kts | 313° |
| 2026-04-14 17:06 | 54.58769 | 8.75645 | 5944 ft | 244 kts | 313° |
| 2026-04-14 17:06 | 54.59963 | 8.73547 | 5624 ft | 243 kts | 313° |
| 2026-04-14 17:07 | 54.61130 | 8.71522 | 5311 ft | 242 kts | 315° |
| 2026-04-14 17:07 | 54.62420 | 8.69636 | 4992 ft | 241 kts | 322° |
| 2026-04-14 17:07 | 54.63791 | 8.68030 | 4682 ft | 240 kts | 324° |
| 2026-04-14 17:07 | 54.65188 | 8.66441 | 4369 ft | 239 kts | 324° |
| 2026-04-14 17:08 | 54.66551 | 8.64846 | 4061 ft | 238 kts | 323° |
| 2026-04-14 17:08 | 54.67900 | 8.63217 | 3754 ft | 237 kts | 323° |
| 2026-04-14 17:08 | 54.69238 | 8.61568 | 3448 ft | 235 kts | 322° |
| 2026-04-14 17:08 | 54.70563 | 8.59915 | 3142 ft | 234 kts | 322° |
| 2026-04-14 17:09 | 54.71869 | 8.58278 | 2988 ft | 228 kts | 322° |
| 2026-04-14 17:09 | 54.73115 | 8.56714 | 2977 ft | 213 kts | 322° |
| 2026-04-14 17:09 | 54.74277 | 8.55258 | 2975 ft | 202 kts | 322° |
| 2026-04-14 17:09 | 54.75375 | 8.53883 | 2968 ft | 192 kts | 322° |
| 2026-04-14 17:10 | 54.76423 | 8.52573 | 2968 ft | 179 kts | 322° |
| 2026-04-14 17:10 | 54.77374 | 8.51388 | 3026 ft | 163 kts | 322° |
| 2026-04-14 17:10 | 54.78295 | 8.50238 | 2972 ft | 161 kts | 322° |
| 2026-04-14 17:10 | 54.79192 | 8.49118 | 2766 ft | 161 kts | 322° |
| 2026-04-14 17:11 | 54.80099 | 8.47987 | 2548 ft | 160 kts | 322° |
| 2026-04-14 17:11 | 54.81007 | 8.46856 | 2332 ft | 160 kts | 322° |
| 2026-04-14 17:11 | 54.81906 | 8.45740 | 2118 ft | 160 kts | 322° |
| 2026-04-14 17:11 | 54.82798 | 8.44631 | 1895 ft | 155 kts | 323° |
| 2026-04-14 17:12 | 54.83647 | 8.43578 | 1689 ft | 141 kts | 322° |
| 2026-04-14 17:12 | 54.84403 | 8.42642 | 1487 ft | 129 kts | 322° |
| 2026-04-14 17:12 | 54.85122 | 8.41745 | 1318 ft | 127 kts | 322° |
| 2026-04-14 17:12 | 54.85843 | 8.40849 | 1153 ft | 127 kts | 322° |
| 2026-04-14 17:13 | 54.86559 | 8.39970 | 981 ft | 127 kts | 323° |
| 2026-04-14 17:13 | 54.87275 | 8.39077 | 799 ft | 126 kts | 321° |
| 2026-04-14 17:13 | 54.87974 | 8.38185 | 631 ft | 126 kts | 322° |
| 2026-04-14 17:13 | 54.88697 | 8.37312 | 462 ft | 125 kts | 322° |
| 2026-04-14 17:14 | 54.89397 | 8.36425 | 294 ft | 125 kts | 322° |
| 2026-04-14 17:14 | 54.90110 | 8.35555 | 133 ft | 125 kts | 322° |
| 2026-04-14 17:14 | 54.90798 | 8.34694 | 36 ft | 113 kts | 324° |
| 2026-04-14 17:14 | 54.91303 | 8.34072 | 32 ft | 64 kts | 323° |
| 2026-04-14 17:15 | 54.91576 | 8.33731 | 32 ft | 42 kts | 324° |
| 2026-04-14 17:15 | 54.91791 | 8.33467 | 34 ft | 31 kts | 325° |
| 2026-04-14 17:15 | 54.91886 | 8.33302 | 32 ft | 14 kts | 275° |
| 2026-04-14 17:15 | 54.91834 | 8.33206 | 32 ft | 10 kts | 200° |
| 2026-04-14 17:16 | 54.91758 | 8.33174 | 31 ft | 12 kts | 180° |
| 2026-04-14 17:16 | 54.91661 | 8.33173 | 29 ft | 15 kts | 180° |
| 2026-04-14 17:16 | 54.91554 | 8.33174 | 29 ft | 13 kts | 179° |
| 2026-04-14 17:16 | 54.91465 | 8.33189 | 29 ft | 12 kts | 155° |
| 2026-04-14 17:17 | 54.91414 | 8.33235 | 29 ft | 5 kts | 159° |
| 2026-04-14 17:17 | 54.91385 | 8.33217 | 29 ft | 4 kts | 256° |
| 2026-04-14 17:17 | 54.91386 | 8.33152 | 29 ft | 4 kts | 268° |
| 2026-04-14 17:17 | 54.91386 | 8.33146 | 29 ft | 0 kts | 268° |